Time;durP1;ratioP1;P1;durP2;ratioP2;P2;SDS_P1;SDS_P2;PMS_P1;PMS_P2;Temp;Humidity;BMP_temperature;BMP_pressure;BME280_temperature;BME280_humidity;BME280_pressure;Samples;Min_cycle;Max_cycle;Signal;HPM_P1;HPM_P2
2022/01/22 04:37:29;;;;;;;69.45;33.80;;;;;;;;;;6221157;23;20044;-89
2022/01/22 04:46:13;;;;;;;11.07;5.80;;;;;;;;;;6217218;23;20287;-85
2022/01/22 08:49:15;;;;;;;54.67;29.20;;;;;;;;;;6220995;23;20410;-94
2022/01/22 08:51:41;;;;;;;41.28;23.80;;;;;;;;;;6195051;23;20009;-93
2022/01/22 08:54:08;;;;;;;35.85;20.50;;;;;;;;;;6220810;23;20012;-93
2022/01/22 08:56:34;;;;;;;38.95;21.00;;;;;;;;;;6220534;23;19993;-93
2022/01/22 08:59:01;;;;;;;50.53;22.20;;;;;;;;;;6196372;23;20083;-93
2022/01/22 09:01:27;;;;;;;58.05;25.75;;;;;;;;;;6196593;23;20001;-93
2022/01/22 09:03:53;;;;;;;102.28;42.22;;;;;;;;;;6222651;23;20011;-93
2022/01/22 09:06:20;;;;;;;63.65;30.55;;;;;;;;;;6222718;23;20007;-90
2022/01/22 09:08:50;;;;;;;74.82;36.05;;;;;;;;;;6223144;23;20004;-92
2022/01/22 09:11:16;;;;;;;65.72;33.20;;;;;;;;;;6222653;23;19996;-93
2022/01/22 09:13:43;;;;;;;62.90;31.58;;;;;;;;;;6195955;23;20031;-92
2022/01/22 09:16:09;;;;;;;55.15;30.10;;;;;;;;;;6195984;23;20032;-92
2022/01/22 09:18:35;;;;;;;60.50;34.33;;;;;;;;;;6195848;23;20004;-92
2022/01/22 09:23:27;;;;;;;34.85;20.13;;;;;;;;;;6232655;23;20268;-91
2022/01/22 09:25:53;;;;;;;33.30;21.45;;;;;;;;;;6196221;23;20001;-91
2022/01/22 09:28:19;;;;;;;49.25;27.05;;;;;;;;;;6222821;23;20000;-92
2022/01/22 09:30:47;;;;;;;55.50;29.20;;;;;;;;;;6222455;23;19997;-92
2022/01/22 09:33:13;;;;;;;49.00;23.10;;;;;;;;;;6196181;23;20005;-94
2022/01/22 09:35:40;;;;;;;51.15;25.08;;;;;;;;;;6222464;23;20065;-92
2022/01/22 09:38:06;;;;;;;33.15;16.13;;;;;;;;;;6222728;23;20252;-92
2022/01/22 09:40:33;;;;;;;39.42;19.92;;;;;;;;;;6196690;23;20011;-92
2022/01/22 09:42:59;;;;;;;59.60;29.27;;;;;;;;;;6196347;23;20066;-92
2022/01/22 09:45:29;;;;;;;50.50;25.00;;;;;;;;;;6222128;23;20019;-92
2022/01/22 09:47:56;;;;;;;49.05;26.83;;;;;;;;;;6222674;23;20001;-93
2022/01/22 09:50:23;;;;;;;32.97;18.15;;;;;;;;;;6196056;23;20004;-92
2022/01/22 09:52:50;;;;;;;58.22;34.97;;;;;;;;;;6196062;23;20001;-92
2022/01/22 09:55:17;;;;;;;38.42;22.58;;;;;;;;;;6196187;23;20267;-93
2022/01/22 09:57:44;;;;;;;40.22;22.17;;;;;;;;;;6222495;23;20015;-92
2022/01/22 10:00:12;;;;;;;45.58;23.75;;;;;;;;;;6195239;23;20055;-93
2022/01/22 10:02:42;;;;;;;71.25;37.05;;;;;;;;;;6222213;23;20056;-91
2022/01/22 10:05:27;;;;;;;53.33;29.08;;;;;;;;;;6222165;23;20012;-92
2022/01/22 10:07:53;;;;;;;39.58;24.63;;;;;;;;;;6222498;23;20000;-92
2022/01/22 10:10:19;;;;;;;40.38;23.33;;;;;;;;;;6221731;23;19992;-92
2022/01/22 10:12:47;;;;;;;38.65;22.67;;;;;;;;;;6222335;23;20027;-93
2022/01/22 10:15:13;;;;;;;22.58;12.50;;;;;;;;;;6195641;23;20012;-93
2022/01/22 10:17:46;;;;;;;19.77;10.18;;;;;;;;;;6222067;23;20393;-92
2022/01/22 10:20:24;;;;;;;27.10;16.35;;;;;;;;;;6222098;23;20007;-91
2022/01/22 10:22:51;;;;;;;28.88;17.60;;;;;;;;;;6222372;23;20031;-93
2022/01/22 10:25:36;;;;;;;28.10;18.10;;;;;;;;;;6222185;23;20005;-92
2022/01/22 10:28:07;;;;;;;38.67;22.58;;;;;;;;;;6195690;23;20001;-90
2022/01/22 10:30:39;;;;;;;34.50;19.77;;;;;;;;;;6221836;23;19997;-91
2022/01/22 10:35:48;;;;;;;66.55;33.28;;;;;;;;;;6232278;23;20015;-91
2022/01/22 10:38:17;;;;;;;60.20;30.65;;;;;;;;;;6221741;23;20347;-91
2022/01/22 10:40:43;;;;;;;52.15;27.73;;;;;;;;;;6222185;23;20006;-92
2022/01/22 10:43:20;;;;;;;124.53;45.83;;;;;;;;;;6221958;23;20000;-91
2022/01/22 10:46:09;;;;;;;61.38;24.60;;;;;;;;;;6221522;23;20016;-91
2022/01/22 10:48:43;;;;;;;23.10;15.23;;;;;;;;;;6195777;23;20004;-91
2022/01/22 10:51:09;;;;;;;32.08;16.85;;;;;;;;;;6223232;23;20007;-92
2022/01/22 10:53:36;;;;;;;20.35;11.82;;;;;;;;;;6222035;23;20295;-91
2022/01/22 10:56:06;;;;;;;37.10;19.75;;;;;;;;;;6221942;23;20008;-91
2022/01/22 10:58:33;;;;;;;51.63;27.77;;;;;;;;;;6222090;23;20024;-91
2022/01/22 11:01:00;;;;;;;24.35;14.35;;;;;;;;;;6221939;23;20000;-92
2022/01/22 11:03:28;;;;;;;21.10;13.98;;;;;;;;;;6221693;23;20001;-92
2022/01/22 11:05:54;;;;;;;24.50;16.33;;;;;;;;;;6195368;23;20086;-92
2022/01/22 11:08:20;;;;;;;15.63;9.45;;;;;;;;;;6222027;23;20000;-90
2022/01/22 11:10:46;;;;;;;22.08;12.20;;;;;;;;;;6194927;23;20299;-92
2022/01/22 11:13:13;;;;;;;25.67;13.75;;;;;;;;;;6195192;23;20291;-92
2022/01/22 11:15:40;;;;;;;18.67;10.77;;;;;;;;;;6195319;23;20013;-91
2022/01/22 11:18:08;;;;;;;17.20;10.75;;;;;;;;;;6221531;23;20009;-91
2022/01/22 11:20:34;;;;;;;46.58;17.13;;;;;;;;;;6221778;23;20019;-92
2022/01/22 11:23:00;;;;;;;22.83;10.93;;;;;;;;;;6221026;23;20012;-93
2022/01/22 11:25:27;;;;;;;72.20;32.05;;;;;;;;;;6221270;23;20039;-91
2022/01/22 11:27:53;;;;;;;64.45;32.70;;;;;;;;;;6194901;23;20001;-91
2022/01/22 11:30:25;;;;;;;33.47;21.67;;;;;;;;;;6195437;23;20001;-92
2022/01/22 11:33:06;;;;;;;33.45;16.98;;;;;;;;;;6221774;23;20382;-94
2022/01/22 11:35:56;;;;;;;22.77;14.85;;;;;;;;;;6221263;23;20359;-92
2022/01/22 11:38:37;;;;;;;15.27;11.18;;;;;;;;;;6221500;23;20008;-92
2022/01/22 11:41:04;;;;;;;18.55;11.00;;;;;;;;;;6221569;23;19997;-91
2022/01/22 11:46:37;;;;;;;14.23;9.63;;;;;;;;;;6221012;23;20031;-92
2022/01/22 11:49:34;;;;;;;16.00;9.73;;;;;;;;;;6221454;23;20000;-92
2022/01/22 11:52:23;;;;;;;15.90;10.02;;;;;;;;;;6219879;23;20076;-93
2022/01/22 11:54:49;;;;;;;15.55;9.50;;;;;;;;;;6195611;23;20012;-92
2022/01/22 11:57:18;;;;;;;14.65;8.80;;;;;;;;;;6221461;23;20005;-91
2022/01/22 11:59:46;;;;;;;17.02;10.40;;;;;;;;;;6221364;23;20005;-92
2022/01/22 12:02:16;;;;;;;12.68;7.95;;;;;;;;;;6221255;23;20284;-92
2022/01/22 12:04:42;;;;;;;57.05;20.40;;;;;;;;;;6194650;23;20011;-92
2022/01/22 12:07:08;;;;;;;17.52;9.38;;;;;;;;;;6194797;23;20005;-92
2022/01/22 12:09:41;;;;;;;10.90;7.38;;;;;;;;;;6194831;23;20359;-92
2022/01/22 12:15:07;;;;;;;39.10;20.30;;;;;;;;;;6221357;23;20027;-91
2022/01/22 12:17:57;;;;;;;29.73;14.63;;;;;;;;;;6221177;23;20032;-91
2022/01/22 12:23:19;;;;;;;16.50;10.07;;;;;;;;;;6221424;23;20095;-92
2022/01/22 12:25:45;;;;;;;13.95;8.88;;;;;;;;;;6220794;23;20001;-92
2022/01/22 12:28:12;;;;;;;16.23;8.80;;;;;;;;;;6194548;23;20031;-94
2022/01/22 12:30:43;;;;;;;15.35;8.43;;;;;;;;;;6220815;23;20004;-92
2022/01/22 12:33:13;;;;;;;12.40;7.97;;;;;;;;;;6222049;23;20063;-92
2022/01/22 12:35:41;;;;;;;13.52;7.78;;;;;;;;;;6223541;23;20075;-91
2022/01/22 12:41:29;;;;;;;9.88;7.30;;;;;;;;;;6222935;23;20003;-93
2022/01/22 12:44:15;;;;;;;10.50;7.00;;;;;;;;;;6223105;23;20367;-92
2022/01/22 12:46:41;;;;;;;16.08;9.20;;;;;;;;;;6223071;23;20024;-92
2022/01/22 12:49:08;;;;;;;14.02;8.52;;;;;;;;;;6223206;23;20001;-92
2022/01/22 12:51:35;;;;;;;12.27;7.68;;;;;;;;;;6223211;23;19997;-92
2022/01/22 12:54:01;;;;;;;11.57;7.97;;;;;;;;;;6196021;23;20008;-92
2022/01/22 12:59:00;;;;;;;14.55;8.90;;;;;;;;;;6233155;23;20015;-93
2022/01/22 13:01:28;;;;;;;13.43;8.25;;;;;;;;;;6196626;23;20000;-93
2022/01/22 13:03:55;;;;;;;15.38;9.70;;;;;;;;;;6222583;23;20372;-92
2022/01/22 13:06:26;;;;;;;20.35;9.90;;;;;;;;;;6222936;23;20355;-92
2022/01/22 13:08:58;;;;;;;17.48;9.68;;;;;;;;;;6223165;23;20012;-93
2022/01/22 13:11:24;;;;;;;;;;;;;;;;;;6222770;23;20007;-92
2022/01/22 13:13:51;;;;;;;14.85;8.45;;;;;;;;;;6222482;23;19927;-92
2022/01/22 13:16:17;;;;;;;12.02;7.70;;;;;;;;;;6222764;23;20012;-93
2022/01/22 13:18:43;;;;;;;16.33;9.05;;;;;;;;;;6222703;23;20268;-92
2022/01/22 13:21:10;;;;;;;10.60;7.90;;;;;;;;;;6222723;23;20001;-92
2022/01/22 13:23:37;;;;;;;13.43;8.75;;;;;;;;;;6222632;23;20001;-93
2022/01/22 13:26:03;;;;;;;14.98;8.75;;;;;;;;;;6222168;23;20004;-92
2022/01/22 13:28:32;;;;;;;14.02;8.93;;;;;;;;;;6222438;23;20356;-92
2022/01/22 13:31:03;;;;;;;14.13;8.00;;;;;;;;;;6196106;23;20016;-92
2022/01/22 13:49:17;;;;;;;15.75;9.73;;;;;;;;;;6222406;23;20015;-92
2022/01/22 13:51:45;;;;;;;11.43;8.10;;;;;;;;;;6222421;23;19996;-92
2022/01/22 13:54:11;;;;;;;10.95;7.15;;;;;;;;;;6222555;23;20524;-92
2022/01/22 13:56:49;;;;;;;12.50;7.93;;;;;;;;;;6196025;23;20039;-93
2022/01/22 13:59:35;;;;;;;11.00;7.70;;;;;;;;;;6195221;23;20008;-92
2022/01/22 14:02:21;;;;;;;12.85;8.05;;;;;;;;;;6222092;23;20008;-91
2022/01/22 14:05:01;;;;;;;16.25;10.15;;;;;;;;;;6196123;23;20386;-91
2022/01/22 14:07:31;;;;;;;13.85;8.68;;;;;;;;;;6222113;23;20067;-92
2022/01/22 14:09:57;;;;;;;11.95;8.10;;;;;;;;;;6221806;23;20001;-91
2022/01/22 14:12:25;;;;;;;11.32;7.15;;;;;;;;;;6222466;23;20007;-91
2022/01/22 14:15:01;;;;;;;19.63;10.95;;;;;;;;;;6222125;23;20379;-92
2022/01/22 14:17:32;;;;;;;47.95;22.85;;;;;;;;;;6195777;23;20139;-91
2022/01/22 14:19:59;;;;;;;52.47;18.63;;;;;;;;;;6222329;23;20008;-93
2022/01/22 14:22:25;;;;;;;29.45;13.45;;;;;;;;;;6195863;23;20066;-92
2022/01/22 14:25:08;;;;;;;21.58;10.80;;;;;;;;;;6195926;23;20012;-92
2022/01/22 14:27:34;;;;;;;32.47;13.52;;;;;;;;;;6195518;23;20051;-91
2022/01/22 14:30:00;;;;;;;82.55;24.67;;;;;;;;;;6221525;23;20000;-92
2022/01/22 14:32:27;;;;;;;72.95;20.85;;;;;;;;;;6222202;23;20004;-93
2022/01/22 14:34:53;;;;;;;59.00;18.13;;;;;;;;;;6195519;23;20000;-92
2022/01/22 14:37:31;;;;;;;96.25;27.50;;;;;;;;;;6195488;23;20001;-91
2022/01/22 14:46:05;;;;;;;25.65;13.43;;;;;;;;;;6094042;23;20066;-92
2022/01/22 14:48:31;;;;;;;41.25;21.20;;;;;;;;;;6077009;23;20011;-93
2022/01/22 14:50:57;;;;;;;57.88;29.20;;;;;;;;;;6076778;23;20405;-92
2022/01/22 14:53:23;;;;;;;50.65;27.70;;;;;;;;;;6100853;23;20002;-92
2022/01/22 14:55:59;;;;;;;28.13;15.10;;;;;;;;;;6101149;23;20029;-92
2022/01/22 14:58:25;;;;;;;19.95;11.98;;;;;;;;;;6101128;23;20006;-93
2022/01/22 15:00:51;;;;;;;18.52;11.13;;;;;;;;;;6101080;23;20118;-91
2022/01/22 15:03:17;;;;;;;57.28;28.67;;;;;;;;;;6077057;23;20006;-93
2022/01/22 15:05:44;;;;;;;60.05;28.55;;;;;;;;;;6100785;23;20437;-92
2022/01/22 15:08:10;;;;;;;57.75;29.48;;;;;;;;;;6101229;23;20003;-91
2022/01/22 15:10:36;;;;;;;28.45;15.05;;;;;;;;;;6077022;23;20013;-93
2022/01/22 15:13:02;;;;;;;20.65;11.68;;;;;;;;;;6076622;23;20093;-92
2022/01/22 15:15:40;;;;;;;31.63;15.38;;;;;;;;;;6100749;23;20366;-92
2022/01/22 15:18:10;;;;;;;85.88;49.65;;;;;;;;;;6100591;23;20377;-93
2022/01/22 15:20:36;;;;;;;86.57;54.85;;;;;;;;;;6179065;23;20056;-92
2022/01/22 15:23:03;;;;;;;97.57;60.30;;;;;;;;;;6191540;23;20027;-93
2022/01/22 15:25:29;;;;;;;454.02;214.52;;;;;;;;;;6190860;23;20055;-92
2022/01/22 15:27:55;;;;;;;345.88;156.68;;;;;;;;;;6189651;23;20033;-93
2022/01/22 15:30:29;;;;;;;156.27;76.22;;;;;;;;;;6190160;23;20005;-92
2022/01/22 15:35:22;;;;;;;71.80;31.38;;;;;;;;;;6201535;23;20025;-92
2022/01/22 15:37:51;;;;;;;249.30;60.28;;;;;;;;;;6191533;23;20009;-93
2022/01/22 15:40:18;;;;;;;263.10;72.75;;;;;;;;;;6191186;23;20033;-92
2022/01/22 15:42:45;;;;;;;281.63;102.43;;;;;;;;;;6190956;23;20001;-92
2022/01/22 15:45:11;;;;;;;260.42;110.93;;;;;;;;;;6202486;23;20021;-92
2022/01/22 15:47:37;;;;;;;210.50;93.45;;;;;;;;;;6221641;23;20016;-92
2022/01/22 15:50:05;;;;;;;230.73;100.63;;;;;;;;;;6221253;23;19997;-93
2022/01/22 15:52:31;;;;;;;265.58;110.53;;;;;;;;;;6221082;23;20438;-92
2022/01/22 15:54:57;;;;;;;314.10;136.65;;;;;;;;;;6221408;23;20402;-92
2022/01/22 15:57:24;;;;;;;368.95;149.60;;;;;;;;;;6194871;23;20063;-92
2022/01/22 15:59:50;;;;;;;312.55;138.20;;;;;;;;;;6221425;23;20000;-92
2022/01/22 16:02:17;;;;;;;304.17;139.45;;;;;;;;;;6194877;23;20008;-92
2022/01/22 16:04:50;;;;;;;320.75;148.48;;;;;;;;;;6194709;23;20009;-92
2022/01/22 16:07:21;;;;;;;339.13;162.52;;;;;;;;;;6194639;23;20001;-92
2022/01/22 16:09:50;;;;;;;415.42;203.88;;;;;;;;;;6195164;23;20009;-93
2022/01/22 16:12:16;;;;;;;599.88;259.42;;;;;;;;;;6220941;23;20009;-93
2022/01/22 16:14:42;;;;;;;602.65;249.65;;;;;;;;;;6220723;23;20018;-92
2022/01/22 16:17:08;;;;;;;402.52;161.88;;;;;;;;;;6221209;23;19996;-92
2022/01/22 16:19:37;;;;;;;263.92;114.32;;;;;;;;;;6221145;23;20004;-93
2022/01/22 16:22:03;;;;;;;204.75;94.05;;;;;;;;;;6194585;23;20001;-93
2022/01/22 16:24:30;;;;;;;147.25;67.43;;;;;;;;;;6220939;23;20047;-92
2022/01/22 16:26:57;;;;;;;116.95;52.78;;;;;;;;;;6221010;23;20005;-92
2022/01/22 16:29:25;;;;;;;116.85;53.08;;;;;;;;;;6221218;23;20012;-92
2022/01/22 16:31:51;;;;;;;112.45;52.50;;;;;;;;;;6221238;23;20259;-92
2022/01/22 16:34:18;;;;;;;104.03;50.03;;;;;;;;;;6194898;23;20001;-92
2022/01/22 16:36:45;;;;;;;92.30;47.10;;;;;;;;;;6194471;23;20001;-91
2022/01/22 16:39:11;;;;;;;129.02;51.65;;;;;;;;;;6194488;23;20295;-92
2022/01/22 16:41:38;;;;;;;182.38;74.20;;;;;;;;;;6220660;23;20015;-92
2022/01/22 16:44:18;;;;;;;268.63;110.40;;;;;;;;;;6220533;23;20079;-92
2022/01/22 16:55:04;;;;;;;299.90;136.43;;;;;;;;;;6100355;23;20006;-92
2022/01/22 16:57:33;;;;;;;246.93;113.25;;;;;;;;;;6075417;23;20034;-92
2022/01/22 17:00:06;;;;;;;232.82;102.95;;;;;;;;;;6075546;23;20369;-92
2022/01/22 17:02:36;;;;;;;222.93;96.88;;;;;;;;;;6075560;23;20077;-92
2022/01/22 17:05:09;;;;;;;181.02;81.93;;;;;;;;;;6075842;23;20010;-92
2022/01/22 17:15:44;;;;;;;118.38;61.03;;;;;;;;;;6014134;23;20060;-93
2022/01/22 17:18:10;;;;;;;236.88;101.05;;;;;;;;;;6013993;23;20012;-91
2022/01/22 17:20:36;;;;;;;135.23;67.15;;;;;;;;;;6015912;23;20040;-92
2022/01/22 17:23:04;;;;;;;161.05;79.85;;;;;;;;;;6015904;23;20011;-93
2022/01/22 17:25:31;;;;;;;128.75;69.32;;;;;;;;;;6015354;23;20007;-92
2022/01/22 17:27:57;;;;;;;86.45;49.15;;;;;;;;;;6016203;23;20007;-91
2022/01/22 17:30:23;;;;;;;67.63;38.90;;;;;;;;;;5992335;23;20008;-92
2022/01/22 17:32:49;;;;;;;214.70;69.28;;;;;;;;;;6038573;23;20011;-91
2022/01/22 17:35:15;;;;;;;90.78;39.25;;;;;;;;;;6049097;23;20370;-91
2022/01/22 17:37:41;;;;;;;78.15;38.95;;;;;;;;;;6049361;23;20014;-92
2022/01/22 17:40:08;;;;;;;90.53;50.00;;;;;;;;;;6050715;23;20063;-89
2022/01/22 17:42:35;;;;;;;256.75;92.20;;;;;;;;;;6072821;23;20007;-88
2022/01/22 17:45:10;;;;;;;131.13;52.05;;;;;;;;;;6081295;23;20019;-90
2022/01/22 17:47:37;;;;;;;75.78;41.58;;;;;;;;;;6173474;23;20000;-88
2022/01/22 17:50:05;;;;;;;281.88;117.25;;;;;;;;;;6222213;23;19993;-88
2022/01/22 17:52:31;;;;;;;277.77;110.50;;;;;;;;;;6221998;23;20023;-88
2022/01/22 17:54:58;;;;;;;137.45;50.70;;;;;;;;;;6222209;23;20041;-88
2022/01/22 17:57:24;;;;;;;201.18;75.80;;;;;;;;;;6222671;23;20001;-87
2022/01/22 17:59:50;;;;;;;314.17;123.57;;;;;;;;;;6222477;23;20008;-88
2022/01/22 18:02:19;;;;;;;208.40;87.30;;;;;;;;;;6195896;23;20008;-88
2022/01/22 18:04:45;;;;;;;180.23;64.47;;;;;;;;;;6222412;23;20008;-90
2022/01/22 18:07:11;;;;;;;197.40;79.45;;;;;;;;;;6195890;23;20010;-88
2022/01/22 18:09:37;;;;;;;214.15;87.35;;;;;;;;;;6222499;23;20068;-88
2022/01/22 18:12:04;;;;;;;117.80;53.70;;;;;;;;;;6221682;23;19996;-87
2022/01/22 18:14:30;;;;;;;155.13;75.50;;;;;;;;;;6195790;23;20004;-88
2022/01/22 18:16:57;;;;;;;92.00;37.22;;;;;;;;;;6195744;23;20012;-88
2022/01/22 18:19:23;;;;;;;79.25;33.15;;;;;;;;;;6221768;23;20016;-88
2022/01/22 18:21:50;;;;;;;82.93;34.65;;;;;;;;;;6222223;23;20076;-88
2022/01/22 18:24:17;;;;;;;107.35;39.45;;;;;;;;;;6221649;23;20379;-88
2022/01/22 18:26:43;;;;;;;62.42;32.78;;;;;;;;;;6221850;23;19999;-88
2022/01/22 18:29:11;;;;;;;71.22;34.10;;;;;;;;;;6222128;23;20007;-88
2022/01/22 18:31:37;;;;;;;112.30;42.92;;;;;;;;;;6194852;23;20083;-88
2022/01/22 18:34:04;;;;;;;90.43;37.35;;;;;;;;;;6221216;23;20364;-87
2022/01/22 18:36:34;;;;;;;86.75;41.28;;;;;;;;;;6221282;23;20008;-88
2022/01/22 18:39:02;;;;;;;78.78;36.28;;;;;;;;;;6221937;23;20008;-88
2022/01/22 18:41:29;;;;;;;36.05;19.55;;;;;;;;;;6222043;23;20000;-89
2022/01/22 18:43:55;;;;;;;35.47;19.40;;;;;;;;;;6221634;23;20008;-88
2022/01/22 18:46:21;;;;;;;38.03;20.35;;;;;;;;;;6221379;23;20016;-88
2022/01/22 18:48:47;;;;;;;40.38;21.95;;;;;;;;;;6221601;23;20005;-87
2022/01/22 18:51:13;;;;;;;39.85;21.52;;;;;;;;;;6195416;23;20001;-88
2022/01/22 18:53:39;;;;;;;43.45;23.73;;;;;;;;;;6221791;23;20247;-88
2022/01/22 18:56:08;;;;;;;42.22;23.00;;;;;;;;;;6195099;23;20016;-87
2022/01/22 19:04:03;;;;;;;70.47;27.70;;;;;;;;;;6222225;23;20023;-87
2022/01/22 19:09:15;;;;;;;39.03;19.05;;;;;;;;;;6221890;23;20043;-86
